createdAt,value
2017-10-27T00:00:02.550Z,0
2017-10-27T00:05:02.890Z,0
2017-10-27T00:10:02.484Z,0
2017-10-27T00:15:03.087Z,0
2017-10-27T00:20:02.531Z,0
2017-10-27T00:25:03.186Z,0
2017-10-27T00:30:02.717Z,0
2017-10-27T00:35:03.123Z,0
2017-10-27T00:40:02.705Z,0
2017-10-27T00:45:03.356Z,0
2017-10-27T00:50:02.859Z,0
2017-10-27T00:55:03.303Z,0
2017-10-27T01:00:02.655Z,0
2017-10-27T01:05:03.041Z,0
2017-10-27T01:10:02.634Z,0
2017-10-27T01:15:03.200Z,0
2017-10-27T01:20:02.685Z,0
2017-10-27T01:25:03.143Z,0
2017-10-27T01:30:02.535Z,0
2017-10-27T01:35:03.173Z,0
2017-10-27T01:40:02.822Z,0
2017-10-27T01:45:03.406Z,0
2017-10-27T01:50:03.074Z,0
2017-10-27T01:55:02.612Z,0
2017-10-27T02:00:03.193Z,0
2017-10-27T02:05:02.642Z,0
2017-10-27T02:10:03.152Z,0
2017-10-27T02:15:02.611Z,0
2017-10-27T02:20:03.277Z,0
2017-10-27T02:25:02.890Z,0
2017-10-27T02:30:03.369Z,0
2017-10-27T02:35:02.929Z,0
2017-10-27T02:40:02.538Z,0
2017-10-27T02:45:03.227Z,0
2017-10-27T02:50:02.798Z,0
2017-10-27T02:55:03.243Z,0
2017-10-27T03:00:02.723Z,0
2017-10-27T03:05:03.056Z,0
2017-10-27T03:10:02.653Z,0
2017-10-27T03:15:03.099Z,0
2017-10-27T03:20:02.746Z,0
2017-10-27T03:25:03.269Z,0
2017-10-27T03:30:02.621Z,0
2017-10-27T03:35:03.094Z,0
2017-10-27T03:40:02.676Z,0
2017-10-27T03:45:03.203Z,0
2017-10-27T03:50:02.771Z,0
2017-10-27T03:55:03.189Z,0
2017-10-27T04:00:02.716Z,0
2017-10-27T04:05:03.287Z,0
2017-10-27T04:10:02.892Z,0
2017-10-27T04:15:03.390Z,0
2017-10-27T04:20:02.888Z,0
2017-10-27T04:25:02.527Z,0
2017-10-27T04:30:02.821Z,0
2017-10-27T04:35:03.283Z,0
2017-10-27T04:40:02.708Z,0
2017-10-27T04:45:03.117Z,0
2017-10-27T04:50:02.702Z,0
2017-10-27T04:55:03.184Z,0
2017-10-27T05:00:02.641Z,0
2017-10-27T05:05:03.289Z,0
2017-10-27T05:10:02.829Z,0
2017-10-27T05:15:03.417Z,0
2017-10-27T05:20:02.940Z,0
2017-10-27T05:25:02.485Z,0
2017-10-27T05:30:02.941Z,0
2017-10-27T05:35:03.334Z,0
2017-10-27T05:40:02.908Z,0
2017-10-27T05:45:03.419Z,0
2017-10-27T05:50:02.813Z,1
2017-10-27T05:55:03.269Z,4
2017-10-27T06:00:02.726Z,11
2017-10-27T06:05:03.121Z,31
2017-10-27T06:10:02.681Z,43
2017-10-27T06:15:03.112Z,52
2017-10-27T06:20:02.600Z,72
2017-10-27T06:25:03.075Z,149
2017-10-27T06:30:02.672Z,276
2017-10-27T06:35:03.217Z,355
2017-10-27T06:40:02.640Z,467
2017-10-27T06:45:03.244Z,598
2017-10-27T06:50:02.687Z,712
2017-10-27T06:55:03.097Z,782
2017-10-27T07:00:02.632Z,860
2017-10-27T07:05:03.281Z,940
2017-10-27T07:10:02.875Z,1000
2017-10-27T07:15:03.273Z,1000
2017-10-27T07:20:02.905Z,1000
2017-10-27T07:25:02.430Z,1000
2017-10-27T07:30:02.995Z,1000
2017-10-27T07:35:02.562Z,1000
2017-10-27T07:40:03.103Z,1000
2017-10-27T07:45:02.544Z,1000
2017-10-27T07:50:02.914Z,1000
2017-10-27T07:55:02.448Z,14000
2017-10-27T08:00:02.980Z,19000
2017-10-27T08:05:02.521Z,20000
2017-10-27T08:10:02.990Z,21000
2017-10-27T08:15:02.581Z,22000
2017-10-27T08:20:02.983Z,23000
2017-10-27T08:25:03.377Z,25000
2017-10-27T08:30:02.875Z,26000
2017-10-27T08:35:02.687Z,27000
2017-10-27T08:40:03.299Z,28000
2017-10-27T08:45:02.825Z,29000
2017-10-27T08:50:03.385Z,21000
2017-10-27T08:55:02.881Z,32000
2017-10-27T09:00:03.395Z,33000
2017-10-27T09:05:02.957Z,10000
2017-10-27T09:10:02.616Z,35000
2017-10-27T09:15:03.252Z,35000
2017-10-27T09:20:02.824Z,13000
2017-10-27T09:25:02.462Z,17000
2017-10-27T09:30:02.801Z,15000
2017-10-27T09:35:03.249Z,8000
2017-10-27T09:40:02.689Z,37000
2017-10-27T09:45:03.250Z,6000
2017-10-27T09:50:02.678Z,33000
2017-10-27T09:55:03.258Z,47000
2017-10-27T10:00:02.682Z,5000
2017-10-27T10:05:03.104Z,2000
2017-10-27T10:10:02.519Z,4000
2017-10-27T10:15:02.824Z,5000
2017-10-27T10:20:03.319Z,5000
2017-10-27T10:25:02.910Z,6000
2017-10-27T10:30:03.312Z,6000
2017-10-27T10:35:02.732Z,8000
2017-10-27T10:40:03.218Z,8000
2017-10-27T10:45:02.689Z,21000
2017-10-27T10:50:03.215Z,27000
2017-10-27T10:55:02.517Z,36000
2017-10-27T11:00:02.896Z,37000
2017-10-27T11:05:02.466Z,39000
2017-10-27T11:10:03.135Z,9000
2017-10-27T11:15:02.695Z,6000
2017-10-27T11:20:03.090Z,3000
2017-10-27T11:25:02.662Z,6000
2017-10-27T11:30:03.260Z,7000
2017-10-27T11:35:02.822Z,4000
2017-10-27T11:40:02.453Z,6000
2017-10-27T11:45:03.015Z,4000
2017-10-27T11:50:02.540Z,6000
2017-10-27T11:55:03.041Z,7000
2017-10-27T12:00:02.600Z,7000
2017-10-27T12:05:03.227Z,5000
2017-10-27T12:10:02.825Z,6000
2017-10-27T12:15:03.096Z,6000
2017-10-27T12:20:02.483Z,10000
2017-10-27T12:25:02.819Z,3000
2017-10-27T12:30:03.270Z,28000
2017-10-27T12:35:02.617Z,15000
2017-10-27T12:40:03.067Z,34000
2017-10-27T12:45:02.515Z,16000
2017-10-27T12:50:02.947Z,38000
2017-10-27T12:55:03.330Z,33000
2017-10-27T13:00:02.741Z,19000
2017-10-27T13:05:03.301Z,13000
2017-10-27T13:10:02.763Z,2000
2017-10-27T13:15:03.106Z,1000
2017-10-27T13:20:02.536Z,2000
2017-10-27T13:25:03.040Z,2000
2017-10-27T13:30:03.375Z,3000
2017-10-27T13:35:02.749Z,4000
2017-10-27T13:40:03.345Z,17000
2017-10-27T13:45:02.899Z,17000
2017-10-27T13:50:03.373Z,15000
2017-10-27T13:55:03.116Z,12000
2017-10-27T14:00:02.562Z,21000
2017-10-27T14:05:03.101Z,18000
2017-10-27T14:10:02.679Z,17000
2017-10-27T14:15:03.249Z,8000
2017-10-27T14:20:02.699Z,11000
2017-10-27T14:25:03.076Z,18000
2017-10-27T14:30:02.526Z,6000
2017-10-27T14:35:03.064Z,6000
2017-10-27T14:40:02.534Z,6000
2017-10-27T14:45:02.918Z,8000
2017-10-27T14:50:03.339Z,4000
2017-10-27T14:55:02.763Z,4000
2017-10-27T15:00:03.242Z,2000
2017-10-27T15:05:02.687Z,3000
2017-10-27T15:10:03.281Z,2000
2017-10-27T15:15:02.734Z,2000
2017-10-27T15:20:03.214Z,4000
2017-10-27T15:25:02.831Z,7000
2017-10-27T15:30:03.306Z,2000
2017-10-27T15:35:02.868Z,1000
2017-10-27T15:40:03.323Z,1000
2017-10-27T15:45:02.845Z,1000
2017-10-27T15:50:03.378Z,727
2017-10-27T15:55:02.913Z,628
2017-10-27T16:00:03.322Z,569
2017-10-27T16:05:02.920Z,465
2017-10-27T16:10:02.547Z,350
2017-10-27T16:15:02.963Z,223
2017-10-27T16:20:02.490Z,118
2017-10-27T16:25:02.826Z,61
2017-10-27T16:30:03.061Z,58
2017-10-27T16:35:02.521Z,38
2017-10-27T16:40:03.174Z,18
2017-10-27T16:45:02.738Z,9
2017-10-27T16:50:03.466Z,2
2017-10-27T16:55:02.896Z,1
2017-10-27T17:00:02.528Z,0
2017-10-27T17:05:02.949Z,0
2017-10-27T17:10:02.666Z,0
2017-10-27T17:15:03.158Z,0
2017-10-27T17:20:02.569Z,0
2017-10-27T17:25:03.054Z,0
2017-10-27T17:30:02.597Z,0
2017-10-27T17:35:03.008Z,0
2017-10-27T17:40:02.572Z,0
2017-10-27T17:45:02.942Z,0
2017-10-27T17:50:03.364Z,0
2017-10-27T17:55:02.743Z,0
2017-10-27T18:00:03.113Z,0
2017-10-27T18:05:02.615Z,0
2017-10-27T18:10:03.112Z,0
2017-10-27T18:15:02.724Z,0
2017-10-27T18:20:03.383Z,0
2017-10-27T18:25:02.943Z,0
2017-10-27T18:30:03.455Z,0
2017-10-27T18:35:02.820Z,0
2017-10-27T18:40:03.325Z,0
2017-10-27T18:45:02.726Z,0
2017-10-27T18:50:03.235Z,0
2017-10-27T18:55:02.619Z,0
2017-10-27T19:00:02.955Z,0
2017-10-27T19:05:02.540Z,0
2017-10-27T19:10:03.008Z,0
2017-10-27T19:15:02.535Z,0
2017-10-27T19:20:02.963Z,0
2017-10-27T19:25:03.308Z,0
2017-10-27T19:30:02.863Z,0
2017-10-27T19:35:03.444Z,0
2017-10-27T19:40:02.945Z,0
2017-10-27T19:45:02.503Z,0
2017-10-27T19:50:02.917Z,0
2017-10-27T19:55:03.207Z,0
2017-10-27T20:00:02.979Z,0
2017-10-27T20:05:02.511Z,0
2017-10-27T20:10:03.114Z,0
2017-10-27T20:15:02.679Z,0
2017-10-27T20:20:03.081Z,0
2017-10-27T20:25:03.451Z,0
2017-10-27T20:30:02.847Z,0
2017-10-27T20:35:03.414Z,0
2017-10-27T20:40:02.864Z,0
2017-10-27T20:45:03.424Z,0
2017-10-27T20:50:02.815Z,0
2017-10-27T20:55:03.303Z,0
2017-10-27T21:00:02.750Z,0
2017-10-27T21:05:03.120Z,0
2017-10-27T21:10:02.592Z,0
2017-10-27T21:15:02.922Z,0
2017-10-27T21:20:03.432Z,0
2017-10-27T21:25:02.913Z,0
2017-10-27T21:30:02.747Z,0
2017-10-27T21:35:03.296Z,0
2017-10-27T21:40:02.855Z,0
2017-10-27T21:45:03.242Z,0
2017-10-27T21:50:02.829Z,0
2017-10-27T21:55:03.250Z,0
2017-10-27T22:00:02.624Z,0
2017-10-27T22:05:03.233Z,0
2017-10-27T22:10:02.675Z,0
2017-10-27T22:15:03.161Z,0
2017-10-27T22:20:02.589Z,0
2017-10-27T22:25:03.143Z,0
2017-10-27T22:30:02.531Z,0
2017-10-27T22:35:03.061Z,0
2017-10-27T22:40:02.601Z,0
2017-10-27T22:45:02.986Z,0
2017-10-27T22:50:02.579Z,0
2017-10-27T22:55:03.104Z,0
2017-10-27T23:00:03.561Z,0
2017-10-27T23:05:02.747Z,0
2017-10-27T23:10:03.168Z,0
2017-10-27T23:15:02.511Z,0
2017-10-27T23:20:03.054Z,0
2017-10-27T23:25:02.566Z,0
2017-10-27T23:30:03.145Z,0
2017-10-27T23:35:02.521Z,0
2017-10-27T23:40:02.993Z,0
2017-10-27T23:45:02.554Z,0
2017-10-27T23:50:03.136Z,0
2017-10-27T23:55:02.515Z,0
